sensor_id;sensor_type;location;lat;lon;timestamp;pressure;altitude;pressure_sealevel;temperature;humidity
7333;BME280;3707;43.618;25.342;2022-07-17T00:00:24;100300.38;;;25.35;47.44
7333;BME280;3707;43.618;25.342;2022-07-17T00:02:51;100303.38;;;25.26;47.76
7333;BME280;3707;43.618;25.342;2022-07-17T00:05:20;100313.97;;;25.28;47.46
7333;BME280;3707;43.618;25.342;2022-07-17T00:07:47;100291.63;;;25.11;47.62
7333;BME280;3707;43.618;25.342;2022-07-17T00:10:14;100306.19;;;25.23;47.13
7333;BME280;3707;43.618;25.342;2022-07-17T00:12:42;100303.84;;;25.15;47.35
7333;BME280;3707;43.618;25.342;2022-07-17T00:15:09;100313.66;;;25.13;47.46
7333;BME280;3707;43.618;25.342;2022-07-17T00:17:36;100312.06;;;25.09;47.52
7333;BME280;3707;43.618;25.342;2022-07-17T00:20:04;100306.19;;;25.01;47.51
7333;BME280;3707;43.618;25.342;2022-07-17T00:22:33;100317.50;;;25.06;47.93
7333;BME280;3707;43.618;25.342;2022-07-17T00:25:00;100303.97;;;24.91;47.62
7333;BME280;3707;43.618;25.342;2022-07-17T00:27:26;100318.78;;;24.96;47.93
7333;BME280;3707;43.618;25.342;2022-07-17T00:29:53;100323.00;;;24.79;47.91
7333;BME280;3707;43.618;25.342;2022-07-17T00:32:20;100322.94;;;24.80;48.33
7333;BME280;3707;43.618;25.342;2022-07-17T00:34:49;100321.09;;;24.82;48.41
7333;BME280;3707;43.618;25.342;2022-07-17T00:37:15;100329.41;;;24.73;48.80
7333;BME280;3707;43.618;25.342;2022-07-17T00:39:44;100322.28;;;24.75;49.19
7333;BME280;3707;43.618;25.342;2022-07-17T00:42:11;100322.69;;;24.64;48.94
7333;BME280;3707;43.618;25.342;2022-07-17T00:44:38;100307.38;;;24.49;49.23
7333;BME280;3707;43.618;25.342;2022-07-17T00:47:11;100326.44;;;24.59;49.30
7333;BME280;3707;43.618;25.342;2022-07-17T00:49:38;100328.91;;;24.63;49.54
7333;BME280;3707;43.618;25.342;2022-07-17T00:52:06;100325.97;;;24.48;49.63
7333;BME280;3707;43.618;25.342;2022-07-17T00:54:35;100325.09;;;24.47;49.74
7333;BME280;3707;43.618;25.342;2022-07-17T00:57:07;100305.44;;;24.30;49.69
7333;BME280;3707;43.618;25.342;2022-07-17T00:59:34;100324.06;;;24.28;50.05
7333;BME280;3707;43.618;25.342;2022-07-17T01:02:03;100310.31;;;24.42;50.09
7333;BME280;3707;43.618;25.342;2022-07-17T01:04:31;100315.97;;;24.33;50.27
7333;BME280;3707;43.618;25.342;2022-07-17T01:06:58;100319.19;;;24.17;50.83
7333;BME280;3707;43.618;25.342;2022-07-17T01:09:26;100321.72;;;24.21;50.77
7333;BME280;3707;43.618;25.342;2022-07-17T01:11:53;100320.72;;;24.23;51.00
7333;BME280;3707;43.618;25.342;2022-07-17T01:14:22;100319.34;;;24.13;51.49
7333;BME280;3707;43.618;25.342;2022-07-17T01:16:49;100316.03;;;24.06;51.81
7333;BME280;3707;43.618;25.342;2022-07-17T01:19:16;100287.78;;;23.82;52.29
7333;BME280;3707;43.618;25.342;2022-07-17T01:21:47;100317.16;;;23.99;52.63
7333;BME280;3707;43.618;25.342;2022-07-17T01:24:15;100326.13;;;23.95;53.01
7333;BME280;3707;43.618;25.342;2022-07-17T01:26:42;100313.91;;;23.91;53.15
7333;BME280;3707;43.618;25.342;2022-07-17T01:29:11;100308.69;;;23.90;53.42
7333;BME280;3707;43.618;25.342;2022-07-17T01:31:39;100319.44;;;23.85;53.99
7333;BME280;3707;43.618;25.342;2022-07-17T01:34:07;100320.72;;;23.74;54.83
7333;BME280;3707;43.618;25.342;2022-07-17T01:36:35;100335.84;;;23.70;55.31
7333;BME280;3707;43.618;25.342;2022-07-17T01:39:04;100327.00;;;23.71;55.55
7333;BME280;3707;43.618;25.342;2022-07-17T01:41:32;100324.88;;;23.56;56.39
7333;BME280;3707;43.618;25.342;2022-07-17T01:43:59;100327.84;;;23.47;57.06
7333;BME280;3707;43.618;25.342;2022-07-17T01:46:26;100331.66;;;23.37;57.79
7333;BME280;3707;43.618;25.342;2022-07-17T01:48:53;100323.78;;;23.35;58.24
7333;BME280;3707;43.618;25.342;2022-07-17T01:51:19;100337.31;;;23.26;59.20
7333;BME280;3707;43.618;25.342;2022-07-17T01:53:46;100337.47;;;23.21;59.52
7333;BME280;3707;43.618;25.342;2022-07-17T01:56:14;100340.94;;;23.23;59.93
7333;BME280;3707;43.618;25.342;2022-07-17T01:58:41;100345.53;;;23.18;60.36
7333;BME280;3707;43.618;25.342;2022-07-17T02:01:08;100340.66;;;23.05;61.03
7333;BME280;3707;43.618;25.342;2022-07-17T02:03:35;100337.34;;;22.98;62.00
7333;BME280;3707;43.618;25.342;2022-07-17T02:06:02;100311.78;;;22.71;62.44
7333;BME280;3707;43.618;25.342;2022-07-17T02:08:29;100333.13;;;22.93;62.97
7333;BME280;3707;43.618;25.342;2022-07-17T02:10:56;100332.00;;;22.72;63.28
7333;BME280;3707;43.618;25.342;2022-07-17T02:13:24;100354.41;;;22.88;63.63
7333;BME280;3707;43.618;25.342;2022-07-17T02:15:51;100351.03;;;22.83;63.68
7333;BME280;3707;43.618;25.342;2022-07-17T02:18:18;100349.41;;;22.79;64.26
7333;BME280;3707;43.618;25.342;2022-07-17T02:20:44;100354.34;;;22.60;64.90
7333;BME280;3707;43.618;25.342;2022-07-17T02:23:15;100320.41;;;22.47;65.04
7333;BME280;3707;43.618;25.342;2022-07-17T02:25:42;100344.81;;;22.55;65.54
7333;BME280;3707;43.618;25.342;2022-07-17T02:28:09;100337.91;;;22.51;65.72
7333;BME280;3707;43.618;25.342;2022-07-17T02:30:37;100352.91;;;22.50;66.24
7333;BME280;3707;43.618;25.342;2022-07-17T02:33:04;100355.09;;;22.36;66.86
7333;BME280;3707;43.618;25.342;2022-07-17T02:35:32;100346.84;;;22.16;67.75
7333;BME280;3707;43.618;25.342;2022-07-17T02:37:59;100343.88;;;22.27;67.44
7333;BME280;3707;43.618;25.342;2022-07-17T02:40:27;100347.47;;;22.26;67.80
7333;BME280;3707;43.618;25.342;2022-07-17T02:42:54;100355.31;;;22.27;67.65
7333;BME280;3707;43.618;25.342;2022-07-17T02:45:21;100366.59;;;22.34;67.71
7333;BME280;3707;43.618;25.342;2022-07-17T02:47:51;100359.75;;;22.27;69.10
7333;BME280;3707;43.618;25.342;2022-07-17T02:50:19;100370.09;;;22.34;68.95
7333;BME280;3707;43.618;25.342;2022-07-17T02:52:46;100346.75;;;22.19;69.78
7333;BME280;3707;43.618;25.342;2022-07-17T02:55:15;100344.41;;;22.08;70.32
7333;BME280;3707;43.618;25.342;2022-07-17T02:57:43;100374.13;;;22.16;71.38
7333;BME280;3707;43.618;25.342;2022-07-17T03:00:13;100383.50;;;22.27;71.53
7333;BME280;3707;43.618;25.342;2022-07-17T03:02:41;100373.59;;;22.04;72.99
7333;BME280;3707;43.618;25.342;2022-07-17T03:05:09;100375.28;;;22.06;72.81
7333;BME280;3707;43.618;25.342;2022-07-17T03:07:36;100387.00;;;21.96;73.65
7333;BME280;3707;43.618;25.342;2022-07-17T03:10:04;100392.19;;;21.99;74.19
7333;BME280;3707;43.618;25.342;2022-07-17T03:12:31;100377.75;;;22.12;73.26
7333;BME280;3707;43.618;25.342;2022-07-17T03:14:58;100399.94;;;22.07;73.83
7333;BME280;3707;43.618;25.342;2022-07-17T03:17:25;100393.19;;;21.95;75.09
7333;BME280;3707;43.618;25.342;2022-07-17T03:19:51;100378.31;;;21.93;76.82
7333;BME280;3707;43.618;25.342;2022-07-17T03:22:20;100395.75;;;21.98;78.39
7333;BME280;3707;43.618;25.342;2022-07-17T03:24:46;100395.75;;;21.98;78.15
7333;BME280;3707;43.618;25.342;2022-07-17T03:27:13;100388.88;;;21.93;78.67
7333;BME280;3707;43.618;25.342;2022-07-17T03:29:40;100401.53;;;22.12;78.34
7333;BME280;3707;43.618;25.342;2022-07-17T03:32:07;100399.94;;;22.38;76.13
7333;BME280;3707;43.618;25.342;2022-07-17T03:34:34;100403.91;;;22.54;75.76
7333;BME280;3707;43.618;25.342;2022-07-17T03:37:01;100413.69;;;22.81;75.58
7333;BME280;3707;43.618;25.342;2022-07-17T03:39:29;100410.53;;;22.98;75.83
7333;BME280;3707;43.618;25.342;2022-07-17T03:41:56;100418.47;;;22.98;75.13
7333;BME280;3707;43.618;25.342;2022-07-17T03:44:23;100421.66;;;23.37;73.33
7333;BME280;3707;43.618;25.342;2022-07-17T03:46:50;100413.13;;;23.56;73.19
7333;BME280;3707;43.618;25.342;2022-07-17T03:49:16;100427.63;;;23.71;71.49
7333;BME280;3707;43.618;25.342;2022-07-17T03:51:43;100426.06;;;23.90;72.17
7333;BME280;3707;43.618;25.342;2022-07-17T03:54:10;100268.09;;;23.64;69.36
7333;BME280;3707;43.618;25.342;2022-07-17T03:56:38;100434.16;;;24.61;69.30
7333;BME280;3707;43.618;25.342;2022-07-17T03:59:05;100436.09;;;25.49;65.29
7333;BME280;3707;43.618;25.342;2022-07-17T04:01:32;100445.59;;;25.55;61.79
7333;BME280;3707;43.618;25.342;2022-07-17T04:03:59;100419.13;;;25.95;60.06
7333;BME280;3707;43.618;25.342;2022-07-17T04:06:26;100453.41;;;26.01;57.09
7333;BME280;3707;43.618;25.342;2022-07-17T04:08:52;100439.66;;;26.12;55.78
7333;BME280;3707;43.618;25.342;2022-07-17T04:11:19;100450.22;;;26.13;56.57
7333;BME280;3707;43.618;25.342;2022-07-17T04:13:48;100453.50;;;26.79;53.83
7333;BME280;3707;43.618;25.342;2022-07-17T04:16:15;100456.59;;;26.70;54.68
7333;BME280;3707;43.618;25.342;2022-07-17T04:18:42;100459.16;;;26.53;53.79
7333;BME280;3707;43.618;25.342;2022-07-17T04:21:10;100468.44;;;26.02;54.74
7333;BME280;3707;43.618;25.342;2022-07-17T04:23:37;100469.06;;;25.87;55.87
7333;BME280;3707;43.618;25.342;2022-07-17T04:26:05;100474.75;;;26.22;54.19
7333;BME280;3707;43.618;25.342;2022-07-17T04:28:32;100476.97;;;26.31;54.01
7333;BME280;3707;43.618;25.342;2022-07-17T04:31:01;100485.47;;;26.59;52.76
7333;BME280;3707;43.618;25.342;2022-07-17T04:33:28;100485.88;;;25.88;55.21
7333;BME280;3707;43.618;25.342;2022-07-17T04:35:55;100489.50;;;26.49;54.08
7333;BME280;3707;43.618;25.342;2022-07-17T04:38:22;100496.25;;;26.96;53.46
7333;BME280;3707;43.618;25.342;2022-07-17T04:40:48;100489.75;;;27.02;52.16
7333;BME280;3707;43.618;25.342;2022-07-17T04:43:15;100494.81;;;27.27;51.51
7333;BME280;3707;43.618;25.342;2022-07-17T04:45:42;100511.00;;;27.41;51.54
7333;BME280;3707;43.618;25.342;2022-07-17T04:48:10;100484.25;;;27.06;51.51
7333;BME280;3707;43.618;25.342;2022-07-17T04:50:37;100520.44;;;27.29;51.21
7333;BME280;3707;43.618;25.342;2022-07-17T04:53:04;100497.19;;;27.14;51.07
7333;BME280;3707;43.618;25.342;2022-07-17T04:55:31;100452.09;;;26.52;51.85
7333;BME280;3707;43.618;25.342;2022-07-17T04:57:57;100524.31;;;27.03;52.69
7333;BME280;3707;43.618;25.342;2022-07-17T05:00:24;100494.59;;;26.33;52.82
7333;BME280;3707;43.618;25.342;2022-07-17T05:02:52;100527.44;;;27.32;51.73
7333;BME280;3707;43.618;25.342;2022-07-17T05:05:20;100537.25;;;26.92;52.11
7333;BME280;3707;43.618;25.342;2022-07-17T05:07:47;100533.84;;;26.28;53.13
7333;BME280;3707;43.618;25.342;2022-07-17T05:10:14;100531.34;;;27.04;51.59
7333;BME280;3707;43.618;25.342;2022-07-17T05:12:42;100539.28;;;27.06;51.42
7333;BME280;3707;43.618;25.342;2022-07-17T05:15:09;100537.56;;;27.80;49.84
7333;BME280;3707;43.618;25.342;2022-07-17T05:17:36;100549.84;;;28.20;48.27
7333;BME280;3707;43.618;25.342;2022-07-17T05:20:04;100559.19;;;27.92;48.55
7333;BME280;3707;43.618;25.342;2022-07-17T05:22:32;100545.94;;;27.72;48.99
7333;BME280;3707;43.618;25.342;2022-07-17T05:24:59;100533.28;;;27.94;48.35
7333;BME280;3707;43.618;25.342;2022-07-17T05:27:27;100552.88;;;27.93;48.39
7333;BME280;3707;43.618;25.342;2022-07-17T05:29:53;100558.31;;;27.92;48.28
7333;BME280;3707;43.618;25.342;2022-07-17T05:32:20;100560.59;;;27.99;50.00
7333;BME280;3707;43.618;25.342;2022-07-17T05:34:47;100544.56;;;27.82;50.09
7333;BME280;3707;43.618;25.342;2022-07-17T05:37:14;100546.56;;;28.49;49.04
7333;BME280;3707;43.618;25.342;2022-07-17T05:39:42;100533.53;;;28.43;47.24
7333;BME280;3707;43.618;25.342;2022-07-17T05:42:09;100572.44;;;28.30;47.74
7333;BME280;3707;43.618;25.342;2022-07-17T05:44:36;100559.94;;;27.94;48.96
7333;BME280;3707;43.618;25.342;2022-07-17T05:47:03;100540.97;;;28.00;48.28
7333;BME280;3707;43.618;25.342;2022-07-17T05:49:30;100553.69;;;28.83;47.00
7333;BME280;3707;43.618;25.342;2022-07-17T05:51:56;100558.00;;;29.02;47.07
7333;BME280;3707;43.618;25.342;2022-07-17T05:54:23;100556.16;;;28.70;48.06
7333;BME280;3707;43.618;25.342;2022-07-17T05:56:51;100567.91;;;28.83;48.84
7333;BME280;3707;43.618;25.342;2022-07-17T05:59:18;100572.28;;;28.33;48.91
7333;BME280;3707;43.618;25.342;2022-07-17T06:01:45;100569.69;;;28.14;49.76
7333;BME280;3707;43.618;25.342;2022-07-17T06:04:12;100569.22;;;28.04;50.39
7333;BME280;3707;43.618;25.342;2022-07-17T06:06:39;100569.91;;;28.10;49.64
7333;BME280;3707;43.618;25.342;2022-07-17T06:09:06;100545.22;;;28.23;49.94
7333;BME280;3707;43.618;25.342;2022-07-17T06:11:33;100565.91;;;28.71;48.90
7333;BME280;3707;43.618;25.342;2022-07-17T06:14:01;100562.84;;;28.79;48.15
7333;BME280;3707;43.618;25.342;2022-07-17T06:16:28;100569.94;;;28.95;48.09
7333;BME280;3707;43.618;25.342;2022-07-17T06:18:55;100577.28;;;28.75;47.53
7333;BME280;3707;43.618;25.342;2022-07-17T06:21:21;100560.41;;;29.40;47.18
7333;BME280;3707;43.618;25.342;2022-07-17T06:23:48;100547.09;;;29.23;47.04
7333;BME280;3707;43.618;25.342;2022-07-17T06:26:15;100564.63;;;29.11;47.07
7333;BME280;3707;43.618;25.342;2022-07-17T06:28:42;100578.75;;;28.63;47.51
7333;BME280;3707;43.618;25.342;2022-07-17T06:31:10;100571.66;;;28.45;48.30
7333;BME280;3707;43.618;25.342;2022-07-17T06:33:37;100569.66;;;28.50;48.39
7333;BME280;3707;43.618;25.342;2022-07-17T06:36:04;100578.56;;;28.32;48.82
7333;BME280;3707;43.618;25.342;2022-07-17T06:38:32;100575.56;;;28.21;49.00
7333;BME280;3707;43.618;25.342;2022-07-17T06:40:59;100568.13;;;27.54;50.56
7333;BME280;3707;43.618;25.342;2022-07-17T06:43:26;100584.25;;;27.70;50.90
7333;BME280;3707;43.618;25.342;2022-07-17T06:45:53;100580.72;;;27.69;51.27
7333;BME280;3707;43.618;25.342;2022-07-17T06:48:22;100578.53;;;27.40;52.01
7333;BME280;3707;43.618;25.342;2022-07-17T06:50:49;100568.00;;;27.37;53.30
7333;BME280;3707;43.618;25.342;2022-07-17T06:53:16;100556.94;;;27.27;51.90
7333;BME280;3707;43.618;25.342;2022-07-17T06:55:43;100573.00;;;27.44;52.03
7333;BME280;3707;43.618;25.342;2022-07-17T06:58:10;100577.00;;;27.16;52.27
7333;BME280;3707;43.618;25.342;2022-07-17T07:00:37;100576.81;;;27.39;52.46
7333;BME280;3707;43.618;25.342;2022-07-17T07:03:04;100565.69;;;27.29;53.29
7333;BME280;3707;43.618;25.342;2022-07-17T07:05:32;100568.41;;;27.48;51.50
7333;BME280;3707;43.618;25.342;2022-07-17T07:07:59;100579.22;;;27.45;52.76
7333;BME280;3707;43.618;25.342;2022-07-17T07:10:26;100575.50;;;27.68;51.05
7333;BME280;3707;43.618;25.342;2022-07-17T07:12:53;100572.97;;;27.46;50.68
7333;BME280;3707;43.618;25.342;2022-07-17T07:15:20;100586.03;;;27.32;52.52
7333;BME280;3707;43.618;25.342;2022-07-17T07:17:47;100590.91;;;27.61;50.96
7333;BME280;3707;43.618;25.342;2022-07-17T07:20:14;100584.19;;;27.52;51.85
7333;BME280;3707;43.618;25.342;2022-07-17T07:22:42;100585.28;;;27.67;50.63
7333;BME280;3707;43.618;25.342;2022-07-17T07:25:09;100591.19;;;27.74;50.92
7333;BME280;3707;43.618;25.342;2022-07-17T07:27:36;100588.72;;;27.88;49.64
7333;BME280;3707;43.618;25.342;2022-07-17T07:30:04;100587.84;;;27.69;50.04
7333;BME280;3707;43.618;25.342;2022-07-17T07:32:35;100588.50;;;27.74;48.62
7333;BME280;3707;43.618;25.342;2022-07-17T07:35:01;100587.88;;;28.04;49.03
7333;BME280;3707;43.618;25.342;2022-07-17T07:37:28;100589.19;;;28.15;49.29
7333;BME280;3707;43.618;25.342;2022-07-17T07:39:57;100589.50;;;28.08;47.60
7333;BME280;3707;43.618;25.342;2022-07-17T07:42:24;100591.91;;;28.32;47.16
7333;BME280;3707;43.618;25.342;2022-07-17T07:44:51;100593.41;;;28.37;46.46
7333;BME280;3707;43.618;25.342;2022-07-17T07:47:18;100595.38;;;28.51;45.53
7333;BME280;3707;43.618;25.342;2022-07-17T07:49:45;100596.78;;;28.58;45.88
7333;BME280;3707;43.618;25.342;2022-07-17T07:52:12;100592.00;;;28.65;46.01
7333;BME280;3707;43.618;25.342;2022-07-17T07:54:39;100582.94;;;28.86;46.48
7333;BME280;3707;43.618;25.342;2022-07-17T07:57:07;100590.63;;;28.75;45.96
7333;BME280;3707;43.618;25.342;2022-07-17T07:59:34;100570.03;;;28.60;47.07
7333;BME280;3707;43.618;25.342;2022-07-17T08:02:02;100561.63;;;28.84;47.35
7333;BME280;3707;43.618;25.342;2022-07-17T08:04:29;100593.25;;;29.09;46.26
7333;BME280;3707;43.618;25.342;2022-07-17T08:06:56;100578.84;;;29.12;46.19
7333;BME280;3707;43.618;25.342;2022-07-17T08:09:23;100585.88;;;28.97;46.52
7333;BME280;3707;43.618;25.342;2022-07-17T08:11:50;100587.88;;;28.76;47.04
7333;BME280;3707;43.618;25.342;2022-07-17T08:14:18;100593.03;;;28.62;45.52
7333;BME280;3707;43.618;25.342;2022-07-17T08:16:45;100574.84;;;28.70;45.55
7333;BME280;3707;43.618;25.342;2022-07-17T08:19:12;100591.25;;;28.80;48.01
7333;BME280;3707;43.618;25.342;2022-07-17T08:21:38;100584.38;;;29.09;48.14
7333;BME280;3707;43.618;25.342;2022-07-17T08:24:05;100591.63;;;29.22;46.43
7333;BME280;3707;43.618;25.342;2022-07-17T08:26:32;100585.16;;;29.11;45.65
7333;BME280;3707;43.618;25.342;2022-07-17T08:28:59;100585.16;;;29.28;44.26
7333;BME280;3707;43.618;25.342;2022-07-17T08:31:27;100588.34;;;29.34;42.78
7333;BME280;3707;43.618;25.342;2022-07-17T08:33:54;100586.16;;;29.74;42.74
7333;BME280;3707;43.618;25.342;2022-07-17T08:36:21;100602.38;;;29.71;38.73
7333;BME280;3707;43.618;25.342;2022-07-17T08:38:48;100597.97;;;29.70;35.88
7333;BME280;3707;43.618;25.342;2022-07-17T08:41:15;100596.66;;;29.61;35.31
7333;BME280;3707;43.618;25.342;2022-07-17T08:43:43;100590.97;;;29.83;36.28
7333;BME280;3707;43.618;25.342;2022-07-17T08:46:14;100560.78;;;29.49;34.93
7333;BME280;3707;43.618;25.342;2022-07-17T08:48:46;100588.03;;;29.56;34.99
7333;BME280;3707;43.618;25.342;2022-07-17T08:51:15;100590.44;;;29.76;36.22
7333;BME280;3707;43.618;25.342;2022-07-17T08:53:43;100496.69;;;29.17;36.14
7333;BME280;3707;43.618;25.342;2022-07-17T08:56:10;100576.34;;;29.90;36.46
7333;BME280;3707;43.618;25.342;2022-07-17T08:58:37;100579.63;;;30.11;35.33
7333;BME280;3707;43.618;25.342;2022-07-17T09:01:04;100576.63;;;30.31;37.74
7333;BME280;3707;43.618;25.342;2022-07-17T09:03:31;100579.38;;;30.45;36.41
7333;BME280;3707;43.618;25.342;2022-07-17T09:05:59;100571.69;;;30.39;35.49
7333;BME280;3707;43.618;25.342;2022-07-17T09:08:26;100570.72;;;30.40;34.88
7333;BME280;3707;43.618;25.342;2022-07-17T09:10:58;100551.41;;;30.35;35.23
7333;BME280;3707;43.618;25.342;2022-07-17T09:13:26;100576.75;;;30.59;34.52
7333;BME280;3707;43.618;25.342;2022-07-17T09:15:56;100569.47;;;30.61;34.88
7333;BME280;3707;43.618;25.342;2022-07-17T09:18:23;100557.91;;;30.31;35.13
7333;BME280;3707;43.618;25.342;2022-07-17T09:20:51;100566.59;;;30.50;35.58
7333;BME280;3707;43.618;25.342;2022-07-17T09:23:22;100569.66;;;30.58;35.39
7333;BME280;3707;43.618;25.342;2022-07-17T09:25:50;100565.22;;;30.43;34.47
7333;BME280;3707;43.618;25.342;2022-07-17T09:28:18;100554.56;;;30.57;35.14
7333;BME280;3707;43.618;25.342;2022-07-17T09:30:51;100559.19;;;30.83;35.09
7333;BME280;3707;43.618;25.342;2022-07-17T09:33:19;100559.78;;;30.74;34.61
7333;BME280;3707;43.618;25.342;2022-07-17T09:35:49;100551.75;;;30.88;35.35
7333;BME280;3707;43.618;25.342;2022-07-17T09:38:29;100555.91;;;30.50;34.60
7333;BME280;3707;43.618;25.342;2022-07-17T09:41:08;100557.47;;;30.82;33.52
7333;BME280;3707;43.618;25.342;2022-07-17T09:43:47;100564.56;;;30.83;34.17
7333;BME280;3707;43.618;25.342;2022-07-17T09:46:18;100563.13;;;30.48;33.68
7333;BME280;3707;43.618;25.342;2022-07-17T09:48:47;100545.78;;;30.69;34.46
7333;BME280;3707;43.618;25.342;2022-07-17T09:51:16;100551.94;;;30.85;33.92
7333;BME280;3707;43.618;25.342;2022-07-17T09:53:47;100556.63;;;30.82;33.40
7333;BME280;3707;43.618;25.342;2022-07-17T09:56:15;100522.63;;;30.68;31.74
7333;BME280;3707;43.618;25.342;2022-07-17T09:58:45;100556.91;;;30.91;32.62
7333;BME280;3707;43.618;25.342;2022-07-17T10:01:14;100538.16;;;30.77;31.17
7333;BME280;3707;43.618;25.342;2022-07-17T10:03:42;100542.53;;;30.64;30.85
7333;BME280;3707;43.618;25.342;2022-07-17T10:06:10;100528.66;;;30.72;31.45
7333;BME280;3707;43.618;25.342;2022-07-17T10:08:37;100545.97;;;31.10;31.06
7333;BME280;3707;43.618;25.342;2022-07-17T10:11:07;100525.88;;;30.59;30.42
7333;BME280;3707;43.618;25.342;2022-07-17T10:13:35;100542.72;;;30.75;29.99
7333;BME280;3707;43.618;25.342;2022-07-17T10:16:03;100477.41;;;30.64;30.33
7333;BME280;3707;43.618;25.342;2022-07-17T10:18:38;100546.97;;;31.36;29.27
7333;BME280;3707;43.618;25.342;2022-07-17T10:21:18;100532.44;;;31.40;29.93
7333;BME280;3707;43.618;25.342;2022-07-17T10:24:04;100528.13;;;31.37;30.54
7333;BME280;3707;43.618;25.342;2022-07-17T10:26:34;100544.13;;;31.39;30.98
7333;BME280;3707;43.618;25.342;2022-07-17T10:29:07;100539.31;;;31.44;30.97
7333;BME280;3707;43.618;25.342;2022-07-17T10:31:35;100502.84;;;31.41;30.05
7333;BME280;3707;43.618;25.342;2022-07-17T10:34:03;100527.34;;;31.50;30.73
7333;BME280;3707;43.618;25.342;2022-07-17T10:36:35;100532.06;;;31.46;31.23
7333;BME280;3707;43.618;25.342;2022-07-17T10:39:16;100514.47;;;31.14;31.09
7333;BME280;3707;43.618;25.342;2022-07-17T10:41:59;100496.38;;;31.17;31.26
7333;BME280;3707;43.618;25.342;2022-07-17T10:44:27;100524.13;;;31.16;31.97
7333;BME280;3707;43.618;25.342;2022-07-17T10:46:55;100514.50;;;31.00;32.01
7333;BME280;3707;43.618;25.342;2022-07-17T10:49:22;100502.19;;;30.95;32.19
7333;BME280;3707;43.618;25.342;2022-07-17T10:51:49;100523.06;;;31.33;31.94
7333;BME280;3707;43.618;25.342;2022-07-17T10:54:17;100506.69;;;31.37;32.11
7333;BME280;3707;43.618;25.342;2022-07-17T10:56:46;100506.78;;;31.64;32.38
7333;BME280;3707;43.618;25.342;2022-07-17T10:59:13;100488.16;;;31.61;31.98
7333;BME280;3707;43.618;25.342;2022-07-17T11:01:40;100499.34;;;31.94;32.83
7333;BME280;3707;43.618;25.342;2022-07-17T11:04:07;100496.44;;;32.12;32.28
7333;BME280;3707;43.618;25.342;2022-07-17T11:06:35;100498.19;;;31.99;32.88
7333;BME280;3707;43.618;25.342;2022-07-17T11:09:04;100495.91;;;32.07;32.93
7333;BME280;3707;43.618;25.342;2022-07-17T11:11:38;100493.38;;;32.04;33.13
7333;BME280;3707;43.618;25.342;2022-07-17T11:14:12;100477.47;;;32.01;32.38
7333;BME280;3707;43.618;25.342;2022-07-17T11:16:45;100493.28;;;32.05;32.02
7333;BME280;3707;43.618;25.342;2022-07-17T11:19:19;100493.97;;;32.09;32.53
7333;BME280;3707;43.618;25.342;2022-07-17T11:21:46;100452.66;;;31.84;32.01
7333;BME280;3707;43.618;25.342;2022-07-17T11:24:14;100488.81;;;32.06;32.42
7333;BME280;3707;43.618;25.342;2022-07-17T11:26:41;100470.81;;;31.93;32.43
7333;BME280;3707;43.618;25.342;2022-07-17T11:29:10;100469.72;;;32.10;32.04
7333;BME280;3707;43.618;25.342;2022-07-17T11:31:37;100466.47;;;32.18;30.84
7333;BME280;3707;43.618;25.342;2022-07-17T11:34:05;100455.75;;;32.18;31.39
7333;BME280;3707;43.618;25.342;2022-07-17T11:36:36;100459.44;;;32.42;31.42
7333;BME280;3707;43.618;25.342;2022-07-17T11:39:06;100478.97;;;32.44;30.71
7333;BME280;3707;43.618;25.342;2022-07-17T11:41:38;100470.94;;;32.44;30.78
7333;BME280;3707;43.618;25.342;2022-07-17T11:44:08;100455.34;;;32.36;31.74
7333;BME280;3707;43.618;25.342;2022-07-17T11:46:37;100450.41;;;32.43;30.82
7333;BME280;3707;43.618;25.342;2022-07-17T11:49:06;100447.81;;;32.29;30.67
7333;BME280;3707;43.618;25.342;2022-07-17T11:51:34;100455.59;;;32.46;31.12
7333;BME280;3707;43.618;25.342;2022-07-17T11:54:06;100444.75;;;32.73;30.56
7333;BME280;3707;43.618;25.342;2022-07-17T11:56:33;100413.69;;;32.43;31.11
7333;BME280;3707;43.618;25.342;2022-07-17T11:59:01;100426.13;;;32.82;31.46
7333;BME280;3707;43.618;25.342;2022-07-17T12:01:29;100429.47;;;32.99;31.46
7333;BME280;3707;43.618;25.342;2022-07-17T12:03:59;100432.25;;;32.97;30.95
7333;BME280;3707;43.618;25.342;2022-07-17T12:06:26;100438.88;;;33.04;30.87
7333;BME280;3707;43.618;25.342;2022-07-17T12:08:54;100419.94;;;32.82;30.99
7333;BME280;3707;43.618;25.342;2022-07-17T12:11:21;100434.03;;;32.60;31.97
7333;BME280;3707;43.618;25.342;2022-07-17T12:13:48;100416.69;;;32.64;31.92
7333;BME280;3707;43.618;25.342;2022-07-17T12:16:23;100423.16;;;32.74;31.29
7333;BME280;3707;43.618;25.342;2022-07-17T12:19:01;100419.31;;;33.15;31.38
7333;BME280;3707;43.618;25.342;2022-07-17T12:21:30;100424.53;;;32.92;31.56
7333;BME280;3707;43.618;25.342;2022-07-17T12:23:59;100420.44;;;33.00;32.99
7333;BME280;3707;43.618;25.342;2022-07-17T12:26:28;100419.91;;;32.95;33.01
7333;BME280;3707;43.618;25.342;2022-07-17T12:28:55;100421.63;;;32.96;32.92
7333;BME280;3707;43.618;25.342;2022-07-17T12:31:22;100418.84;;;32.84;33.56
7333;BME280;3707;43.618;25.342;2022-07-17T12:33:51;100406.78;;;33.03;33.72
7333;BME280;3707;43.618;25.342;2022-07-17T12:36:22;100412.38;;;32.87;35.20
7333;BME280;3707;43.618;25.342;2022-07-17T12:38:49;100407.97;;;32.99;33.92
7333;BME280;3707;43.618;25.342;2022-07-17T12:41:16;100411.03;;;33.18;33.77
7333;BME280;3707;43.618;25.342;2022-07-17T12:43:43;100406.41;;;33.20;33.84
7333;BME280;3707;43.618;25.342;2022-07-17T12:46:10;100405.13;;;33.49;33.25
7333;BME280;3707;43.618;25.342;2022-07-17T12:48:37;100405.56;;;33.43;33.25
7333;BME280;3707;43.618;25.342;2022-07-17T12:51:06;100371.50;;;33.67;34.57
7333;BME280;3707;43.618;25.342;2022-07-17T12:53:34;100395.16;;;34.21;33.00
7333;BME280;3707;43.618;25.342;2022-07-17T12:56:02;100390.56;;;33.75;33.44
7333;BME280;3707;43.618;25.342;2022-07-17T12:58:29;100390.34;;;33.55;34.60
7333;BME280;3707;43.618;25.342;2022-07-17T13:00:56;100378.94;;;33.75;33.84
7333;BME280;3707;43.618;25.342;2022-07-17T13:03:23;100374.72;;;33.83;33.97